createdAt,value
2017-07-03T00:00:07.476Z,78.87
2017-07-03T00:02:37.045Z,78.61
2017-07-03T00:05:06.819Z,78.60
2017-07-03T00:07:36.589Z,78.71
2017-07-03T00:10:06.379Z,78.54
2017-07-03T00:12:35.919Z,78.79
2017-07-03T00:15:05.717Z,78.59
2017-07-03T00:17:35.444Z,78.34
2017-07-03T00:20:05.268Z,78.36
2017-07-03T00:22:35.038Z,77.57
2017-07-03T00:25:04.884Z,77.70
2017-07-03T00:27:34.629Z,77.46
2017-07-03T00:30:04.407Z,77.32
2017-07-03T00:32:34.133Z,76.91
2017-07-03T00:35:03.919Z,76.95
2017-07-03T00:37:33.653Z,77.01
2017-07-03T00:40:03.443Z,76.48
2017-07-03T00:42:33.157Z,76.64
2017-07-03T00:45:02.973Z,76.01
2017-07-03T00:47:32.688Z,76.12
2017-07-03T00:50:02.452Z,75.66
2017-07-03T00:52:32.182Z,75.25
2017-07-03T00:55:01.933Z,75.58
2017-07-03T00:57:31.655Z,75.34
2017-07-03T01:00:01.400Z,75.30
2017-07-03T01:02:30.986Z,76.32
2017-07-03T01:05:00.698Z,76.34
2017-07-03T01:07:30.450Z,76.53
2017-07-03T01:10:00.200Z,77.29
2017-07-03T01:12:29.929Z,77.16
2017-07-03T01:14:59.493Z,77.22
2017-07-03T01:17:29.221Z,77.74
2017-07-03T01:19:58.932Z,78.25
2017-07-03T01:22:28.674Z,78.57
2017-07-03T01:24:58.413Z,78.98
2017-07-03T01:27:28.159Z,79.29
2017-07-03T01:29:57.909Z,79.36
2017-07-03T01:32:27.680Z,79.57
2017-07-03T01:34:57.413Z,80.46
2017-07-03T01:37:27.146Z,79.63
2017-07-03T01:39:56.950Z,79.70
2017-07-03T01:42:26.689Z,80.28
2017-07-03T01:44:56.435Z,80.53
2017-07-03T01:47:26.182Z,80.64
2017-07-03T01:49:55.931Z,81.43
2017-07-03T01:52:25.708Z,82.07
2017-07-03T01:54:55.440Z,81.44
2017-07-03T01:57:25.178Z,81.38
2017-07-03T01:59:54.961Z,81.45
2017-07-03T02:02:24.689Z,81.90
2017-07-03T02:04:54.241Z,82.36
2017-07-03T02:07:23.973Z,82.42
2017-07-03T02:09:53.729Z,81.69
2017-07-03T02:12:23.489Z,81.96
2017-07-03T02:14:53.216Z,82.05
2017-07-03T02:17:22.976Z,82.51
2017-07-03T02:19:52.737Z,82.37
2017-07-03T02:22:22.474Z,83.18
2017-07-03T02:24:52.234Z,84.07
2017-07-03T02:27:21.969Z,85.81
2017-07-03T02:29:51.725Z,87.56
2017-07-03T02:32:21.934Z,87.85
2017-07-03T02:34:51.680Z,88.44
2017-07-03T02:37:21.430Z,88.17
2017-07-03T02:39:51.197Z,88.89
2017-07-03T02:42:20.941Z,88.95
2017-07-03T02:44:50.704Z,89.00
2017-07-03T02:47:20.447Z,87.73
2017-07-03T02:49:50.177Z,87.54
2017-07-03T02:52:19.913Z,86.79
2017-07-03T02:54:50.388Z,86.79
2017-07-03T02:57:20.119Z,86.91
2017-07-03T02:59:49.897Z,87.35
2017-07-03T03:02:19.654Z,87.40
2017-07-03T03:04:49.394Z,87.81
2017-07-03T03:07:19.166Z,87.99
2017-07-03T03:09:48.889Z,88.43
2017-07-03T03:12:18.629Z,88.47
2017-07-03T03:14:48.354Z,87.84
2017-07-03T03:17:18.089Z,88.61
2017-07-03T03:19:47.822Z,88.73
2017-07-03T03:22:17.566Z,89.05
2017-07-03T03:24:47.305Z,89.36
2017-07-03T03:27:17.059Z,89.42
2017-07-03T03:29:46.804Z,89.47
2017-07-03T03:32:16.542Z,88.73
2017-07-03T03:34:46.265Z,88.20
2017-07-03T03:37:15.995Z,88.13
2017-07-03T03:39:45.779Z,87.11
2017-07-03T03:42:15.497Z,87.52
2017-07-03T03:44:45.229Z,88.13
2017-07-03T03:47:14.966Z,87.08
2017-07-03T03:49:44.699Z,87.40
2017-07-03T03:52:14.463Z,87.28
2017-07-03T03:54:44.185Z,87.12
2017-07-03T03:57:13.925Z,87.29
2017-07-03T03:59:43.654Z,87.51
2017-07-03T04:02:13.384Z,86.92
2017-07-03T04:04:43.122Z,87.24
2017-07-03T04:07:12.859Z,86.51
2017-07-03T04:09:42.581Z,87.14
2017-07-03T04:12:12.350Z,87.32
2017-07-03T04:14:42.079Z,87.67
2017-07-03T04:17:11.813Z,87.57
2017-07-03T04:19:41.588Z,87.08
2017-07-03T04:22:11.317Z,87.48
2017-07-03T04:24:41.081Z,87.06
2017-07-03T04:27:10.936Z,87.30
2017-07-03T04:29:41.025Z,87.13
2017-07-03T04:32:10.782Z,87.15
2017-07-03T04:34:40.506Z,87.39
2017-07-03T04:37:10.329Z,87.21
2017-07-03T04:39:40.029Z,87.69
2017-07-03T04:42:09.753Z,87.16
2017-07-03T04:44:39.492Z,86.68
2017-07-03T04:47:09.218Z,86.63
2017-07-03T04:49:38.949Z,86.65
2017-07-03T04:52:08.674Z,86.88
2017-07-03T04:54:38.406Z,86.24
2017-07-03T04:57:08.135Z,86.25
2017-07-03T04:59:37.881Z,86.65
2017-07-03T05:02:07.597Z,86.21
2017-07-03T05:04:37.337Z,86.08
2017-07-03T05:07:07.067Z,86.70
2017-07-03T05:09:36.817Z,86.41
2017-07-03T05:12:06.549Z,85.53
2017-07-03T05:14:36.274Z,85.67
2017-07-03T05:17:06.022Z,85.88
2017-07-03T05:19:35.748Z,85.27
2017-07-03T05:22:05.497Z,85.04
2017-07-03T05:24:35.260Z,85.01
2017-07-03T05:27:05.078Z,84.59
2017-07-03T05:29:34.791Z,84.28
2017-07-03T05:32:04.343Z,84.27
2017-07-03T05:34:34.079Z,84.53
2017-07-03T05:37:03.809Z,84.05
2017-07-03T05:39:33.561Z,83.32
2017-07-03T05:42:03.114Z,83.35
2017-07-03T05:44:32.847Z,82.91
2017-07-03T05:47:02.585Z,83.20
2017-07-03T05:49:32.341Z,81.66
2017-07-03T05:52:02.096Z,81.79
2017-07-03T05:54:31.833Z,81.27
2017-07-03T05:57:01.373Z,79.76
2017-07-03T05:59:31.120Z,79.31
2017-07-03T06:02:00.669Z,78.57
2017-07-03T06:04:30.401Z,76.51
2017-07-03T06:07:00.167Z,77.82
2017-07-03T06:09:29.898Z,76.31
2017-07-03T06:11:59.665Z,76.88
2017-07-03T06:14:29.397Z,76.34
2017-07-03T06:17:00.604Z,75.59
2017-07-03T06:19:30.351Z,74.43
2017-07-03T06:22:00.155Z,73.10
2017-07-03T06:24:29.876Z,73.74
2017-07-03T06:26:59.625Z,73.14
2017-07-03T06:29:29.456Z,73.64
2017-07-03T06:31:58.901Z,73.01
2017-07-03T06:34:28.691Z,71.72
2017-07-03T06:36:58.428Z,69.64
2017-07-03T06:39:27.857Z,69.95
2017-07-03T06:41:57.628Z,68.71
2017-07-03T06:44:27.080Z,69.73
2017-07-03T06:46:56.506Z,68.25
2017-07-03T06:49:26.277Z,69.85
2017-07-03T06:51:56.004Z,70.38
2017-07-03T06:54:25.449Z,70.74
2017-07-03T06:56:54.905Z,69.55
2017-07-03T06:59:24.352Z,69.91
2017-07-03T07:01:53.793Z,70.05
2017-07-03T07:04:23.244Z,69.83
2017-07-03T07:06:52.700Z,68.67
2017-07-03T07:09:22.154Z,67.90
2017-07-03T07:11:51.638Z,67.47
2017-07-03T07:14:21.091Z,68.14
2017-07-03T07:16:50.636Z,66.35
2017-07-03T07:19:20.071Z,66.87
2017-07-03T07:21:49.519Z,68.22
2017-07-03T07:24:18.989Z,66.34
2017-07-03T07:26:48.442Z,65.02
2017-07-03T07:29:17.916Z,63.37
2017-07-03T07:31:47.375Z,62.95
2017-07-03T07:34:16.823Z,62.69
2017-07-03T07:36:46.265Z,64.79
2017-07-03T07:39:15.712Z,64.20
2017-07-03T07:41:45.212Z,66.68
2017-07-03T07:44:14.637Z,68.24
2017-07-03T07:46:44.080Z,67.86
2017-07-03T07:49:13.534Z,67.40
2017-07-03T07:51:43.009Z,65.74
2017-07-03T07:54:12.458Z,66.93
2017-07-03T07:56:41.916Z,66.22
2017-07-03T07:59:11.361Z,64.87
2017-07-03T08:01:40.839Z,63.87
2017-07-03T08:04:10.302Z,61.97
2017-07-03T08:06:39.752Z,61.35
2017-07-03T08:09:09.209Z,62.56
2017-07-03T08:11:38.673Z,62.83
2017-07-03T08:14:08.157Z,64.01
2017-07-03T08:16:37.582Z,64.40
2017-07-03T08:19:07.034Z,63.57
2017-07-03T08:21:36.474Z,60.10
2017-07-03T08:24:05.913Z,58.64
2017-07-03T08:26:35.361Z,60.32
2017-07-03T08:29:04.809Z,59.78
2017-07-03T08:31:34.247Z,59.72
2017-07-03T08:34:03.705Z,62.33
2017-07-03T08:36:33.162Z,60.09
2017-07-03T08:39:02.601Z,59.06
2017-07-03T08:41:31.924Z,59.72
2017-07-03T08:44:01.385Z,56.10
2017-07-03T08:46:30.857Z,58.72
2017-07-03T08:49:00.323Z,58.63
2017-07-03T08:51:29.785Z,57.14
2017-07-03T08:53:59.261Z,57.27
2017-07-03T08:56:28.737Z,58.43
2017-07-03T08:58:58.211Z,56.86
2017-07-03T09:01:27.670Z,56.04
2017-07-03T09:03:57.143Z,57.25
2017-07-03T09:06:26.582Z,57.20
2017-07-03T09:08:56.109Z,55.93
2017-07-03T09:11:25.542Z,54.60
2017-07-03T09:13:55.026Z,55.10
2017-07-03T09:16:24.489Z,54.75
2017-07-03T09:18:53.935Z,56.27
2017-07-03T09:21:23.213Z,54.73
2017-07-03T09:23:52.662Z,53.17
2017-07-03T09:26:22.110Z,53.01
2017-07-03T09:28:51.548Z,54.05
2017-07-03T09:31:21.026Z,53.95
2017-07-03T09:33:50.482Z,54.57
2017-07-03T09:36:19.929Z,53.65
2017-07-03T09:38:49.374Z,52.38
2017-07-03T09:41:18.968Z,53.07
2017-07-03T09:43:48.393Z,51.93
2017-07-03T09:46:17.649Z,52.44
2017-07-03T09:48:47.096Z,52.15
2017-07-03T09:51:16.578Z,52.87
2017-07-03T09:53:46.023Z,53.13
2017-07-03T09:56:15.510Z,51.87
2017-07-03T09:58:44.953Z,51.82
2017-07-03T10:01:14.396Z,49.50
2017-07-03T10:03:43.652Z,50.28
2017-07-03T10:06:13.113Z,49.93
2017-07-03T10:08:42.557Z,50.48
2017-07-03T10:11:12.011Z,50.60
2017-07-03T10:13:41.463Z,51.86
2017-07-03T10:16:10.915Z,50.75
2017-07-03T10:18:40.366Z,47.68
2017-07-03T10:21:09.835Z,46.67
2017-07-03T10:23:39.316Z,47.74
2017-07-03T10:26:08.769Z,47.90
2017-07-03T10:28:38.205Z,50.09
2017-07-03T10:31:07.651Z,49.59
2017-07-03T10:33:37.102Z,49.56
2017-07-03T10:36:06.585Z,49.28
2017-07-03T10:38:36.005Z,49.07
2017-07-03T10:41:05.472Z,50.47
2017-07-03T10:43:34.922Z,50.11
2017-07-03T10:46:04.365Z,51.49
2017-07-03T10:48:33.825Z,52.04
2017-07-03T10:51:03.270Z,52.93
2017-07-03T10:53:32.710Z,52.76
2017-07-03T10:56:02.171Z,53.33
2017-07-03T10:58:31.611Z,53.16
2017-07-03T11:01:01.065Z,52.19
2017-07-03T11:03:30.518Z,52.29
2017-07-03T11:05:59.956Z,51.55
2017-07-03T11:08:29.508Z,49.58
2017-07-03T11:10:58.965Z,48.97
2017-07-03T11:13:28.416Z,47.71
2017-07-03T11:15:57.857Z,46.97
2017-07-03T11:18:27.328Z,49.61
2017-07-03T11:20:56.757Z,49.35
2017-07-03T11:23:26.205Z,48.80
2017-07-03T11:25:55.680Z,49.68
2017-07-03T11:28:25.136Z,49.12
2017-07-03T11:30:54.573Z,49.53
2017-07-03T11:33:24.040Z,49.73
2017-07-03T11:35:53.479Z,49.97
2017-07-03T11:38:22.922Z,51.09
2017-07-03T11:40:52.382Z,51.75
2017-07-03T11:43:21.827Z,49.61
2017-07-03T11:45:51.279Z,50.61
2017-07-03T11:48:20.751Z,49.72
2017-07-03T11:50:50.222Z,50.17
2017-07-03T11:53:19.668Z,49.68
2017-07-03T11:55:49.150Z,46.74
2017-07-03T11:58:18.698Z,48.51
2017-07-03T12:00:48.154Z,47.98
2017-07-03T12:03:17.605Z,47.67
2017-07-03T12:05:47.049Z,47.26
2017-07-03T12:08:16.506Z,48.26
2017-07-03T12:10:45.950Z,46.00
2017-07-03T12:13:15.429Z,46.03
2017-07-03T12:15:44.890Z,46.24
2017-07-03T12:18:14.437Z,46.87
2017-07-03T12:20:43.887Z,48.57
2017-07-03T12:23:13.356Z,49.16
2017-07-03T12:25:42.801Z,50.88
2017-07-03T12:28:12.253Z,52.51
2017-07-03T12:30:41.734Z,52.36
2017-07-03T12:33:11.173Z,48.52
2017-07-03T12:35:40.625Z,50.11
2017-07-03T12:38:10.079Z,48.65
2017-07-03T12:40:39.554Z,48.97
2017-07-03T12:43:09.005Z,47.34
2017-07-03T12:45:38.459Z,48.38
2017-07-03T12:48:07.919Z,47.40
2017-07-03T12:50:37.397Z,46.73
2017-07-03T12:53:06.841Z,45.15
2017-07-03T12:55:36.299Z,45.35
2017-07-03T12:58:05.751Z,44.52
2017-07-03T13:00:35.037Z,38.64
2017-07-03T13:03:04.488Z,36.00
2017-07-03T13:05:33.939Z,38.44
2017-07-03T13:08:03.417Z,40.45
2017-07-03T13:10:32.873Z,41.26
2017-07-03T13:13:02.326Z,42.42
2017-07-03T13:15:31.784Z,44.18
2017-07-03T13:18:01.348Z,45.00
2017-07-03T13:20:30.778Z,43.34
2017-07-03T13:23:00.260Z,44.71
2017-07-03T13:25:29.370Z,45.37
2017-07-03T13:27:58.830Z,46.01
2017-07-03T13:30:28.305Z,45.05
2017-07-03T13:32:57.815Z,42.14
2017-07-03T13:35:27.300Z,41.92
2017-07-03T13:37:56.829Z,38.56
2017-07-03T13:40:26.310Z,36.47
2017-07-03T13:42:55.759Z,39.10
2017-07-03T13:45:25.221Z,41.13
2017-07-03T13:47:54.700Z,42.12
2017-07-03T13:50:24.197Z,42.82
2017-07-03T13:52:53.641Z,43.06
2017-07-03T13:55:23.168Z,43.70
2017-07-03T13:57:52.608Z,43.73
2017-07-03T14:00:22.085Z,44.94
2017-07-03T14:02:51.538Z,44.74
2017-07-03T14:05:21.017Z,45.67
2017-07-03T14:07:50.460Z,43.02
2017-07-03T14:10:19.968Z,38.77
2017-07-03T14:12:49.402Z,38.59
2017-07-03T14:15:18.885Z,36.58
2017-07-03T14:17:48.352Z,35.07
2017-07-03T14:20:17.827Z,35.23
2017-07-03T14:22:47.270Z,33.31
2017-07-03T14:25:16.761Z,34.33
2017-07-03T14:27:46.226Z,34.16
2017-07-03T14:30:15.712Z,34.38
2017-07-03T14:32:45.149Z,34.79
2017-07-03T14:35:14.636Z,34.19
2017-07-03T14:37:44.081Z,31.82
2017-07-03T14:40:13.589Z,32.48
2017-07-03T14:42:43.025Z,30.74
2017-07-03T14:45:12.542Z,31.00
2017-07-03T14:47:41.994Z,30.50
2017-07-03T14:50:11.477Z,29.97
2017-07-03T14:52:40.934Z,30.04
2017-07-03T14:55:10.431Z,29.50
2017-07-03T14:57:40.071Z,30.67
2017-07-03T15:00:09.902Z,30.03
2017-07-03T15:02:39.252Z,27.97
2017-07-03T15:05:09.055Z,27.78
2017-07-03T15:07:39.057Z,30.16
2017-07-03T15:10:08.711Z,30.35
2017-07-03T15:12:38.429Z,29.50
2017-07-03T15:15:08.130Z,28.67
2017-07-03T15:17:37.593Z,29.15
2017-07-03T15:20:07.090Z,29.47
2017-07-03T15:22:36.795Z,30.11
2017-07-03T15:25:06.670Z,28.42
2017-07-03T15:27:36.249Z,29.22
2017-07-03T15:30:05.862Z,28.04
2017-07-03T15:32:35.506Z,28.74
2017-07-03T15:35:05.047Z,30.06
2017-07-03T15:37:34.521Z,28.44
2017-07-03T15:40:04.000Z,29.71
2017-07-03T15:42:33.580Z,30.28
2017-07-03T15:45:03.071Z,28.86
2017-07-03T15:47:32.524Z,31.33
2017-07-03T15:50:02.026Z,30.73
2017-07-03T15:52:31.470Z,32.69
2017-07-03T15:55:00.923Z,31.88
2017-07-03T15:57:30.346Z,31.10
2017-07-03T16:00:02.342Z,31.26
2017-07-03T16:02:34.417Z,31.39
2017-07-03T16:05:05.073Z,32.15
2017-07-03T16:07:34.781Z,33.94
2017-07-03T16:10:04.519Z,34.11
2017-07-03T16:12:34.254Z,34.79
2017-07-03T16:15:03.811Z,34.99
2017-07-03T16:17:34.000Z,34.86
2017-07-03T16:20:03.897Z,34.84
2017-07-03T16:22:33.385Z,35.66
2017-07-03T16:25:02.880Z,36.32
2017-07-03T16:27:32.313Z,34.84
2017-07-03T16:30:01.851Z,35.85
2017-07-03T16:32:31.787Z,35.23
2017-07-03T16:35:01.826Z,34.91
2017-07-03T16:37:32.009Z,34.43
2017-07-03T16:40:01.476Z,34.43
2017-07-03T16:42:30.917Z,33.63
2017-07-03T16:45:00.893Z,34.19
2017-07-03T16:47:31.174Z,33.50
2017-07-03T16:50:00.786Z,34.56
2017-07-03T16:52:30.329Z,35.68
2017-07-03T16:54:59.848Z,34.54
2017-07-03T16:57:29.283Z,34.55
2017-07-03T16:59:58.917Z,34.36
2017-07-03T17:02:28.369Z,33.78
2017-07-03T17:04:57.836Z,33.21
2017-07-03T17:07:27.286Z,33.65
2017-07-03T17:09:56.775Z,32.58
2017-07-03T17:12:26.321Z,31.97
2017-07-03T17:14:55.841Z,33.61
2017-07-03T17:17:25.287Z,33.34
2017-07-03T17:19:54.741Z,32.82
2017-07-03T17:22:25.112Z,33.88
2017-07-03T17:24:54.678Z,33.09
2017-07-03T17:27:24.123Z,33.71
2017-07-03T17:29:53.666Z,33.86
2017-07-03T17:32:23.123Z,33.94
2017-07-03T17:34:52.625Z,33.45
2017-07-03T17:37:22.132Z,34.33
2017-07-03T17:39:51.618Z,33.86
2017-07-03T17:42:21.117Z,32.65
2017-07-03T17:44:50.576Z,32.78
2017-07-03T17:47:20.123Z,34.19
2017-07-03T17:49:49.549Z,33.99
2017-07-03T17:52:19.038Z,34.30
2017-07-03T17:54:48.529Z,33.71
2017-07-03T17:57:17.970Z,33.70
2017-07-03T17:59:47.449Z,34.66
2017-07-03T18:02:16.893Z,34.38
2017-07-03T18:04:46.341Z,34.67
2017-07-03T18:07:15.801Z,35.46
2017-07-03T18:09:45.280Z,35.25
2017-07-03T18:12:14.725Z,35.49
2017-07-03T18:14:44.195Z,35.97
2017-07-03T18:17:13.687Z,36.90
2017-07-03T18:19:43.141Z,36.99
2017-07-03T18:22:12.613Z,38.61
2017-07-03T18:24:42.078Z,38.82
2017-07-03T18:27:11.538Z,39.84
2017-07-03T18:29:41.021Z,41.74
2017-07-03T18:32:10.453Z,41.70
2017-07-03T18:34:39.894Z,43.55
2017-07-03T18:37:09.350Z,43.68
2017-07-03T18:39:38.823Z,44.93
2017-07-03T18:42:08.283Z,45.74
2017-07-03T18:44:37.795Z,46.78
2017-07-03T18:47:07.281Z,48.45
2017-07-03T18:49:36.763Z,49.01
2017-07-03T18:52:06.225Z,49.97
2017-07-03T18:54:35.686Z,50.41
2017-07-03T18:57:05.200Z,51.67
2017-07-03T18:59:34.347Z,53.41
2017-07-03T19:02:03.790Z,54.85
2017-07-03T19:04:33.251Z,55.46
2017-07-03T19:07:02.704Z,55.45
2017-07-03T19:09:33.022Z,56.04
2017-07-03T19:12:02.903Z,56.65
2017-07-03T19:14:32.497Z,57.43
2017-07-03T19:17:02.081Z,58.51
2017-07-03T19:19:31.374Z,59.41
2017-07-03T19:22:00.858Z,59.75
2017-07-03T19:24:30.338Z,60.31
2017-07-03T19:26:59.781Z,61.20
2017-07-03T19:29:29.253Z,61.94
2017-07-03T19:31:58.720Z,63.57
2017-07-03T19:34:28.248Z,63.90
2017-07-03T19:36:57.730Z,63.65
2017-07-03T19:39:27.177Z,64.41
2017-07-03T19:41:56.664Z,64.14
2017-07-03T19:44:26.119Z,64.33
2017-07-03T19:46:55.603Z,64.76
2017-07-03T19:49:25.057Z,65.46
2017-07-03T19:51:54.498Z,65.52
2017-07-03T19:54:23.957Z,65.71
2017-07-03T19:56:53.594Z,66.30
2017-07-03T19:59:23.510Z,66.59
2017-07-03T20:01:52.969Z,66.48
2017-07-03T20:04:22.426Z,66.62
2017-07-03T20:06:51.888Z,66.43
2017-07-03T20:09:21.351Z,66.78
2017-07-03T20:11:50.793Z,66.86
2017-07-03T20:14:20.281Z,67.00
2017-07-03T20:16:49.759Z,67.01
2017-07-03T20:19:19.272Z,67.80
2017-07-03T20:21:48.762Z,68.51
2017-07-03T20:24:18.204Z,69.00
2017-07-03T20:26:47.657Z,69.97
2017-07-03T20:29:17.175Z,69.71
2017-07-03T20:31:46.643Z,70.17
2017-07-03T20:34:16.129Z,70.50
2017-07-03T20:36:45.565Z,71.20
2017-07-03T20:39:14.853Z,71.69
2017-07-03T20:41:44.610Z,72.02
2017-07-03T20:44:14.097Z,72.32
2017-07-03T20:46:43.534Z,72.58
2017-07-03T20:49:13.003Z,73.03
2017-07-03T20:51:42.473Z,73.40
2017-07-03T20:54:12.197Z,73.31
2017-07-03T20:56:41.955Z,74.14
2017-07-03T20:59:11.395Z,74.58
2017-07-03T21:01:41.144Z,74.74
2017-07-03T21:04:10.875Z,74.86
2017-07-03T21:06:40.620Z,75.32
2017-07-03T21:09:10.421Z,75.92
2017-07-03T21:11:40.149Z,76.27
2017-07-03T21:14:10.004Z,76.68
2017-07-03T21:16:39.405Z,76.61
2017-07-03T21:19:09.119Z,76.88
2017-07-03T21:21:38.863Z,77.39
2017-07-03T21:24:08.704Z,77.49
2017-07-03T21:26:38.465Z,77.62
2017-07-03T21:29:08.193Z,77.87
2017-07-03T21:31:37.938Z,78.32
2017-07-03T21:34:07.673Z,79.42
2017-07-03T21:36:37.417Z,79.74
2017-07-03T21:39:07.194Z,79.86
2017-07-03T21:41:36.938Z,79.83
2017-07-03T21:44:06.719Z,79.99
2017-07-03T21:46:36.460Z,79.85
2017-07-03T21:49:06.202Z,79.93
2017-07-03T21:51:35.942Z,80.24
2017-07-03T21:54:05.673Z,80.41
2017-07-03T21:56:35.471Z,80.57
2017-07-03T21:59:05.214Z,80.82
2017-07-03T22:01:34.938Z,80.81
2017-07-03T22:04:04.656Z,80.82
2017-07-03T22:06:34.402Z,81.35
2017-07-03T22:09:03.366Z,81.72
2017-07-03T22:11:33.101Z,81.79
2017-07-03T22:14:02.724Z,81.86
2017-07-03T22:16:32.560Z,81.75
2017-07-03T22:19:02.282Z,81.69
2017-07-03T22:21:32.031Z,81.35
2017-07-03T22:24:01.613Z,81.67
2017-07-03T22:26:31.379Z,82.18
2017-07-03T22:29:01.206Z,81.41
2017-07-03T22:31:30.932Z,82.13
2017-07-03T22:34:00.654Z,81.46
2017-07-03T22:36:30.446Z,80.96
2017-07-03T22:39:00.185Z,81.43
2017-07-03T22:41:29.942Z,81.17
2017-07-03T22:43:59.690Z,81.39
2017-07-03T22:46:29.426Z,80.96
2017-07-03T22:48:59.149Z,80.85
2017-07-03T22:51:28.872Z,80.89
2017-07-03T22:53:58.625Z,81.15
2017-07-03T22:56:28.391Z,81.46
2017-07-03T22:58:58.129Z,81.73
2017-07-03T23:01:27.859Z,81.96
2017-07-03T23:03:57.409Z,82.28
2017-07-03T23:06:27.161Z,82.28
2017-07-03T23:08:56.713Z,82.39
2017-07-03T23:11:26.449Z,82.78
2017-07-03T23:13:56.262Z,82.66
2017-07-03T23:16:25.973Z,83.06
2017-07-03T23:18:55.753Z,82.60
2017-07-03T23:21:25.564Z,82.37
2017-07-03T23:23:55.307Z,82.54
2017-07-03T23:26:25.177Z,82.46
2017-07-03T23:28:54.689Z,82.58
2017-07-03T23:31:24.442Z,82.79
2017-07-03T23:33:53.982Z,82.21
2017-07-03T23:36:23.704Z,82.57
2017-07-03T23:38:53.449Z,82.68
2017-07-03T23:41:23.216Z,82.41
2017-07-03T23:43:52.953Z,82.07
2017-07-03T23:46:22.682Z,82.78
2017-07-03T23:48:52.422Z,82.47
2017-07-03T23:51:22.179Z,82.36
2017-07-03T23:53:51.929Z,82.56
2017-07-03T23:56:21.689Z,82.92
2017-07-03T23:58:51.451Z,83.04
